Kezdőlap
METAR-TAF:

METAR-TAF

Repülőterek :

Kuvaitváros, Kuvait

földrajzi szélesség: 29-13N, földrajzi hosszúság: 047-59E, magasság: 55 m

Jelenlegi meteorológiai megfigyelések

A jelentés 28 perccel ezelõtt készült, 18:00 UTC
Déli szél 7 kt
Hőmérséklet 28°C
Páratartalom 58%
Légköri nyomás 1012 hPa
Látótávolság: 8000 m
Derült ég

METAR: OKBK 171800Z 17007KT 8000 SKC 28/19 Q1012 NOSIG

Idő: 21:28 (18:28 UTC)

Előrejelzés

A jelentés 1 órával és 43 perccel ezelõtt készült, 16:45 UTC
Az előrejelzés 17-én 18 óra UTC és 18-én 24 óra UTC között érvényes
Déli szél 10 kt
Látótávolság: 6000 m
17-én 18 óra UTC és 18-én 04 óra UTC között ideiglenes
Különbözõ irányokból fújó szél 3 kt
Látótávolság: 3000 m
Párásság

TAF: OKBK 171645Z 1718/1824 18010KT 6000 NSC TEMPO 1718/1804 VRB03KT 3000 BR

Meteorológiai megfigyelések és előrejelzések több, mint 4000 repülőtéren (METAR és TAF jelentéseket).

A térképen piros és sárga pontok jelzik az elérhető meteorológiai állomásokat.

Mozgassa az egeret a pont fölött, hogy megjelenjen az állomás neve.

Azután kattintson az időjárási megfigyelések és előrejelzések megtekintéséhez.

A térkép megváltoztatása: kattintson a fekete keresztel jelölt zöld gombra ráközelítéshez, a vonallal jelölt zöld gombra távolításhoz, vagy a zöld nyilakra a szomszédos térképek eléréséhez.


METAR-TAF: